createdAt,value
2019-06-15T00:04:18.203Z,20.00
2019-06-15T00:09:45.990Z,20.10
2019-06-15T00:12:13.399Z,20.10
2019-06-15T00:18:25.473Z,20.10
2019-06-15T00:21:19.691Z,20.00
2019-06-15T00:23:51.753Z,20.00
2019-06-15T00:26:22.073Z,20.10
2019-06-15T00:28:49.307Z,20.10
2019-06-15T00:31:28.379Z,20.10
2019-06-15T00:34:03.383Z,20.10
2019-06-15T00:36:49.663Z,20.10
2019-06-15T00:39:23.031Z,20.20
2019-06-15T00:42:06.186Z,20.10
2019-06-15T00:45:01.438Z,20.10
2019-06-15T00:47:30.458Z,20.00
2019-06-15T00:53:31.817Z,20.00
2019-06-15T00:56:33.883Z,20.10
2019-06-15T01:06:22.737Z,20.00
2019-06-15T01:09:14.162Z,20.00
2019-06-15T01:11:41.738Z,19.90
2019-06-15T01:14:19.518Z,20.00
2019-06-15T01:17:04.236Z,20.00
2019-06-15T01:19:33.214Z,20.00
2019-06-15T01:22:27.561Z,20.00
2019-06-15T01:25:05.641Z,19.50
2019-06-15T01:27:32.215Z,20.00
2019-06-15T01:33:27.288Z,20.00
2019-06-15T01:35:55.699Z,20.50
2019-06-15T01:38:24.215Z,20.10
2019-06-15T01:40:53.655Z,20.10
2019-06-15T01:43:22.671Z,20.10
2019-06-15T01:45:57.480Z,20.10
2019-06-15T01:48:31.428Z,20.00
2019-06-15T01:51:03.379Z,20.10
2019-06-15T01:53:31.431Z,20.20
2019-06-15T01:56:05.768Z,20.20
2019-06-15T01:58:38.372Z,20.20
2019-06-15T02:01:06.734Z,20.20
2019-06-15T02:03:45.005Z,20.10
2019-06-15T02:06:13.102Z,19.80
2019-06-15T02:08:55.947Z,19.10
2019-06-15T02:11:24.005Z,20.20
2019-06-15T02:13:51.476Z,20.30
2019-06-15T02:16:20.701Z,20.30
2019-06-15T02:18:48.681Z,20.30
2019-06-15T02:21:23.706Z,20.40
2019-06-15T02:23:53.663Z,20.30
2019-06-15T02:26:23.459Z,21.40
2019-06-15T02:28:53.089Z,20.40
2019-06-15T02:31:22.277Z,21.30
2019-06-15T02:33:51.562Z,20.40
2019-06-15T02:36:20.657Z,20.30
2019-06-15T02:38:49.655Z,20.30
2019-06-15T02:41:41.106Z,20.40
2019-06-15T02:44:12.595Z,20.40
2019-06-15T02:46:43.639Z,20.50
2019-06-15T02:49:13.149Z,20.50
2019-06-15T02:51:44.060Z,20.50
2019-06-15T02:54:16.378Z,20.60
2019-06-15T02:56:44.045Z,20.60
2019-06-15T02:59:16.764Z,21.10
2019-06-15T03:01:44.647Z,20.70
2019-06-15T03:04:14.658Z,20.60
2019-06-15T03:06:47.828Z,21.30
2019-06-15T03:09:15.670Z,20.70
2019-06-15T03:11:45.311Z,20.70
2019-06-15T03:14:15.816Z,20.70
2019-06-15T03:16:49.424Z,20.70
2019-06-15T03:19:28.813Z,21.00
2019-06-15T03:21:56.435Z,22.00
2019-06-15T03:24:25.283Z,20.80
2019-06-15T03:27:05.319Z,22.50
2019-06-15T03:29:35.770Z,20.80
2019-06-15T03:32:19.008Z,20.80
2019-06-15T03:35:00.108Z,20.80
2019-06-15T03:37:37.136Z,20.90
2019-06-15T03:40:32.373Z,20.80
2019-06-15T03:46:36.375Z,21.30
2019-06-15T03:49:06.131Z,21.00
2019-06-15T03:51:41.380Z,21.00
2019-06-15T03:54:11.490Z,21.00
2019-06-15T03:56:41.020Z,21.10
2019-06-15T03:59:13.294Z,21.10
2019-06-15T04:01:46.976Z,21.20
2019-06-15T04:04:15.011Z,21.20
2019-06-15T04:06:47.034Z,21.20
2019-06-15T04:09:19.724Z,22.10
2019-06-15T04:11:50.628Z,22.50
2019-06-15T04:14:32.785Z,21.20
2019-06-15T04:17:01.065Z,22.80
2019-06-15T04:20:17.270Z,21.20
2019-06-15T04:23:08.197Z,21.20
2019-06-15T04:25:47.431Z,19.60
2019-06-15T04:31:12.224Z,20.30
2019-06-15T04:33:44.834Z,23.00
2019-06-15T04:36:47.255Z,23.40
2019-06-15T04:39:21.222Z,21.40
2019-06-15T04:41:50.398Z,22.80
2019-06-15T04:44:24.339Z,22.20
2019-06-15T04:47:31.223Z,21.60
2019-06-15T04:50:02.842Z,21.50
2019-06-15T04:52:52.059Z,20.00
2019-06-15T04:59:18.164Z,21.30
2019-06-15T05:02:02.880Z,21.60
2019-06-15T05:04:37.190Z,21.50
2019-06-15T05:07:10.325Z,21.50
2019-06-15T05:09:40.353Z,21.50
2019-06-15T05:12:11.785Z,21.40
2019-06-15T05:14:43.337Z,21.30
2019-06-15T05:17:16.269Z,21.30
2019-06-15T05:19:55.289Z,21.20
2019-06-15T05:22:27.401Z,21.10
2019-06-15T05:25:03.961Z,21.20
2019-06-15T05:27:39.706Z,19.70
2019-06-15T05:30:08.691Z,20.90
2019-06-15T05:33:05.788Z,20.90
2019-06-15T05:35:39.198Z,20.90
2019-06-15T05:38:16.682Z,20.90
2019-06-15T05:40:46.027Z,20.90
2019-06-15T05:43:32.162Z,20.90
2019-06-15T05:45:59.239Z,20.90
2019-06-15T05:48:31.714Z,20.90
2019-06-15T05:51:01.432Z,20.90
2019-06-15T05:53:38.347Z,20.90
2019-06-15T05:56:18.057Z,20.70
2019-06-15T05:58:49.339Z,20.60
2019-06-15T06:01:22.652Z,19.10
2019-06-15T06:03:55.066Z,20.70
2019-06-15T06:06:25.218Z,20.80
2019-06-15T06:09:01.395Z,20.80
2019-06-15T06:11:36.167Z,22.10
2019-06-15T06:14:08.508Z,21.80
2019-06-15T06:16:45.701Z,21.90
2019-06-15T06:19:16.318Z,21.00
2019-06-15T06:21:45.526Z,21.10
2019-06-15T06:24:16.024Z,21.10
2019-06-15T06:26:59.470Z,21.20
2019-06-15T06:29:32.971Z,21.00
2019-06-15T06:32:28.713Z,21.20
2019-06-15T06:34:58.586Z,21.60
2019-06-15T06:37:31.904Z,20.80
2019-06-15T06:40:26.672Z,21.10
2019-06-15T06:42:56.396Z,21.00
2019-06-15T06:45:28.400Z,21.00
2019-06-15T06:47:58.292Z,21.50
2019-06-15T06:50:28.938Z,21.00
2019-06-15T06:53:03.548Z,21.10
2019-06-15T06:55:33.820Z,20.30
2019-06-15T06:58:02.140Z,20.90
2019-06-15T07:00:30.193Z,20.10
2019-06-15T07:03:03.145Z,21.20
2019-06-15T07:05:35.660Z,21.00
2019-06-15T07:08:09.572Z,22.40
2019-06-15T07:10:46.988Z,21.00
2019-06-15T07:13:19.142Z,21.00
2019-06-15T07:15:51.446Z,21.10
2019-06-15T07:18:50.444Z,21.00
2019-06-15T07:21:19.690Z,21.10
2019-06-15T07:23:56.077Z,21.10
2019-06-15T07:26:28.290Z,21.00
2019-06-15T07:29:03.321Z,21.20
2019-06-15T07:31:32.562Z,21.10
2019-06-15T07:34:03.677Z,21.10
2019-06-15T07:36:38.192Z,21.10
2019-06-15T07:39:13.017Z,21.00
2019-06-15T07:41:46.735Z,22.70
2019-06-15T07:44:15.271Z,21.00
2019-06-15T07:46:52.995Z,21.00
2019-06-15T07:49:20.736Z,21.90
2019-06-15T07:51:48.600Z,21.00
2019-06-15T07:54:21.947Z,21.10
2019-06-15T07:56:53.165Z,21.00
2019-06-15T07:59:38.424Z,21.10
2019-06-15T08:02:11.311Z,21.10
2019-06-15T08:04:49.255Z,21.20
2019-06-15T08:07:21.469Z,21.40
2019-06-15T08:09:55.525Z,23.00
2019-06-15T08:12:28.099Z,22.10
2019-06-15T08:14:57.285Z,22.40
2019-06-15T08:17:27.013Z,22.70
2019-06-15T08:19:55.734Z,22.90
2019-06-15T08:22:26.069Z,23.20
2019-06-15T08:28:18.265Z,23.10
2019-06-15T08:30:48.813Z,23.00
2019-06-15T08:36:36.459Z,22.70
2019-06-15T08:39:07.934Z,22.80
2019-06-15T08:41:47.356Z,22.70
2019-06-15T08:44:16.995Z,22.70
2019-06-15T08:46:45.465Z,22.70
2019-06-15T08:49:24.889Z,22.70
2019-06-15T08:51:55.424Z,23.50
2019-06-15T08:54:26.558Z,22.70
2019-06-15T08:57:18.960Z,22.70
2019-06-15T08:59:50.950Z,22.70
2019-06-15T09:02:23.820Z,22.70
2019-06-15T09:04:54.542Z,22.70
2019-06-15T09:07:25.110Z,22.70
2019-06-15T09:09:53.930Z,21.40
2019-06-15T09:12:24.967Z,22.70
2019-06-15T09:14:53.271Z,22.60
2019-06-15T09:17:23.730Z,23.70
2019-06-15T09:19:55.689Z,20.70
2019-06-15T09:22:25.788Z,19.60
2019-06-15T09:24:56.255Z,19.00
2019-06-15T09:27:27.659Z,18.70
2019-06-15T09:29:59.009Z,18.30
2019-06-15T09:32:26.425Z,18.20
2019-06-15T09:34:55.420Z,18.20
2019-06-15T09:37:24.736Z,18.20
2019-06-15T09:39:59.597Z,19.00
2019-06-15T09:42:27.099Z,18.10
2019-06-15T09:44:56.092Z,18.10
2019-06-15T09:47:23.976Z,17.90
2019-06-15T09:49:54.580Z,17.90
2019-06-15T09:52:24.328Z,17.80
2019-06-15T09:54:53.610Z,17.80
2019-06-15T09:57:21.805Z,17.80
2019-06-15T09:59:50.671Z,17.70
2019-06-15T10:02:18.462Z,17.60
2019-06-15T10:04:45.930Z,17.60
2019-06-15T10:07:38.246Z,17.70
2019-06-15T10:10:22.949Z,18.30
2019-06-15T10:13:04.579Z,17.70
2019-06-15T10:18:39.953Z,17.80
2019-06-15T10:21:12.143Z,17.80
2019-06-15T10:23:39.975Z,17.90
2019-06-15T10:26:14.001Z,18.70
2019-06-15T10:29:04.174Z,18.10
2019-06-15T10:32:16.589Z,18.10
2019-06-15T10:34:46.640Z,18.00
2019-06-15T10:37:13.927Z,18.40
2019-06-15T10:39:41.577Z,18.50
2019-06-15T10:42:10.127Z,18.50
2019-06-15T10:44:40.304Z,18.60
2019-06-15T10:47:08.218Z,18.60
2019-06-15T10:49:36.678Z,18.60
2019-06-15T10:52:07.788Z,18.50
2019-06-15T10:54:47.128Z,18.40
2019-06-15T10:57:15.826Z,19.00
2019-06-15T10:59:56.346Z,18.30
2019-06-15T11:02:16.007Z,18.40
2019-06-15T11:04:43.524Z,18.60
2019-06-15T11:07:11.766Z,18.50
2019-06-15T11:09:39.876Z,20.10
2019-06-15T11:12:07.805Z,19.30
2019-06-15T11:14:41.900Z,19.50
2019-06-15T11:17:26.265Z,19.80
2019-06-15T11:20:02.219Z,20.10
2019-06-15T11:22:29.762Z,20.40
2019-06-15T11:24:57.741Z,20.80
2019-06-15T11:27:25.231Z,21.20
2019-06-15T11:29:52.837Z,21.60
2019-06-15T11:32:22.490Z,21.80
2019-06-15T11:35:06.994Z,22.20
2019-06-15T11:37:47.552Z,22.30
2019-06-15T11:40:15.994Z,22.70
2019-06-15T11:42:43.695Z,23.40
2019-06-15T11:45:12.893Z,24.30
2019-06-15T11:47:40.874Z,25.00
2019-06-15T11:53:50.478Z,26.30
2019-06-15T11:56:18.165Z,24.80
2019-06-15T11:58:53.601Z,24.10
2019-06-15T12:01:22.188Z,22.60
2019-06-15T12:04:18.472Z,23.30
2019-06-15T12:06:46.691Z,22.60
2019-06-15T12:09:14.442Z,22.20
2019-06-15T12:11:42.256Z,22.30
2019-06-15T12:14:11.943Z,21.90
2019-06-15T12:16:41.260Z,22.20
2019-06-15T12:19:11.063Z,21.70
2019-06-15T12:21:38.565Z,20.20
2019-06-15T12:24:07.055Z,21.10
2019-06-15T12:26:35.601Z,21.50
2019-06-15T12:29:03.339Z,22.00
2019-06-15T12:31:36.757Z,22.00
2019-06-15T12:34:08.194Z,22.40
2019-06-15T12:36:41.374Z,23.30
2019-06-15T12:39:08.963Z,23.50
2019-06-15T12:41:36.589Z,23.70
2019-06-15T12:44:09.711Z,24.10
2019-06-15T12:50:21.270Z,24.30
2019-06-15T12:53:20.525Z,24.10
2019-06-15T12:55:49.754Z,22.60
2019-06-15T12:58:19.065Z,23.30
2019-06-15T13:01:01.101Z,24.50
2019-06-15T13:03:19.940Z,23.10
2019-06-15T13:05:47.996Z,22.90
2019-06-15T13:08:19.201Z,23.30
2019-06-15T13:10:46.821Z,23.20
2019-06-15T13:13:14.329Z,23.50
2019-06-15T13:15:42.095Z,23.50
2019-06-15T13:18:10.897Z,23.40
2019-06-15T13:20:42.400Z,23.60
2019-06-15T13:23:14.632Z,22.40
2019-06-15T13:25:44.211Z,21.50
2019-06-15T13:28:12.353Z,22.00
2019-06-15T13:30:40.354Z,22.30
2019-06-15T13:33:08.889Z,21.80
2019-06-15T13:35:36.511Z,22.70
2019-06-15T13:38:04.672Z,22.50
2019-06-15T13:40:49.739Z,23.30
2019-06-15T13:43:23.560Z,23.00
2019-06-15T13:46:18.664Z,21.10
2019-06-15T13:48:48.720Z,22.30
2019-06-15T13:51:17.424Z,22.20
2019-06-15T13:53:45.495Z,22.20
2019-06-15T13:56:14.971Z,22.10
2019-06-15T13:58:43.211Z,22.30
2019-06-15T14:01:12.898Z,22.60
2019-06-15T14:03:44.011Z,22.60
2019-06-15T14:06:11.938Z,22.50
2019-06-15T14:08:45.184Z,23.20
2019-06-15T14:11:14.367Z,24.10
2019-06-15T14:13:42.271Z,25.30
2019-06-15T14:16:10.335Z,26.30
2019-06-15T14:18:40.758Z,26.10
2019-06-15T14:21:09.437Z,25.10
2019-06-15T14:23:37.227Z,24.60
2019-06-15T14:26:05.901Z,23.30
2019-06-15T14:28:35.222Z,22.90
2019-06-15T14:31:03.062Z,23.40
2019-06-15T14:33:31.351Z,22.10
2019-06-15T14:36:06.364Z,21.80
2019-06-15T14:38:55.022Z,21.60
2019-06-15T14:41:23.830Z,21.40
2019-06-15T14:43:53.519Z,21.20
2019-06-15T14:46:24.046Z,21.00
2019-06-15T14:49:08.828Z,21.00
2019-06-15T14:52:06.109Z,20.90
2019-06-15T14:55:17.985Z,20.80
2019-06-15T14:57:55.718Z,20.80
2019-06-15T15:00:52.589Z,20.90
2019-06-15T15:04:06.143Z,21.00
2019-06-15T15:06:41.487Z,21.00
2019-06-15T15:09:09.862Z,21.20
2019-06-15T15:11:38.918Z,19.90
2019-06-15T15:14:06.810Z,21.40
2019-06-15T15:16:37.813Z,21.40
2019-06-15T15:19:06.740Z,21.60
2019-06-15T15:21:37.372Z,21.70
2019-06-15T15:24:06.228Z,21.90
2019-06-15T15:29:51.837Z,22.50
2019-06-15T15:32:43.648Z,22.50
2019-06-15T15:41:48.712Z,22.50
2019-06-15T15:44:22.470Z,22.40
2019-06-15T15:47:08.031Z,22.60
2019-06-15T15:49:50.744Z,22.60
2019-06-15T15:52:52.940Z,22.60
2019-06-15T15:55:36.099Z,22.70
2019-06-15T16:01:40.773Z,22.00
2019-06-15T16:08:27.821Z,23.00
2019-06-15T16:11:31.834Z,23.10
2019-06-15T16:18:07.117Z,22.90
2019-06-15T16:21:20.453Z,22.60
2019-06-15T16:24:33.892Z,22.20
2019-06-15T16:30:59.871Z,22.10
2019-06-15T16:39:42.381Z,22.90
2019-06-15T16:42:51.499Z,23.10
2019-06-15T16:45:57.788Z,23.20
2019-06-15T16:49:42.716Z,23.20
2019-06-15T16:52:17.933Z,23.20
2019-06-15T16:55:52.705Z,22.60
2019-06-15T17:02:01.983Z,22.00
2019-06-15T17:04:29.615Z,21.90
2019-06-15T17:06:58.411Z,21.70
2019-06-15T17:09:30.271Z,21.70
2019-06-15T17:11:59.894Z,21.70
2019-06-15T17:14:29.629Z,21.80
2019-06-15T17:17:00.971Z,22.50
2019-06-15T17:19:30.977Z,21.80
2019-06-15T17:22:14.728Z,21.90
2019-06-15T17:24:38.383Z,22.80
2019-06-15T17:27:08.122Z,21.30
2019-06-15T17:29:37.995Z,21.60
2019-06-15T17:32:06.479Z,21.50
2019-06-15T17:34:36.703Z,21.40
2019-06-15T17:37:17.248Z,21.30
2019-06-15T17:39:53.249Z,21.20
2019-06-15T17:42:26.029Z,21.10
2019-06-15T17:44:57.216Z,21.60
2019-06-15T17:47:26.261Z,21.00
2019-06-15T17:49:56.201Z,21.70
2019-06-15T17:52:36.416Z,21.90
2019-06-15T17:55:08.626Z,22.70
2019-06-15T17:57:38.395Z,21.00
2019-06-15T18:00:09.656Z,21.10
2019-06-15T18:02:38.276Z,20.90
2019-06-15T18:05:08.762Z,22.70
2019-06-15T18:07:38.699Z,21.00
2019-06-15T18:10:11.606Z,21.20
2019-06-15T18:12:40.760Z,21.40
2019-06-15T18:15:08.930Z,22.30
2019-06-15T18:17:39.081Z,20.80
2019-06-15T18:20:10.309Z,22.10
2019-06-15T18:22:41.553Z,22.00
2019-06-15T18:25:11.568Z,21.20
2019-06-15T18:27:46.308Z,21.60
2019-06-15T18:30:16.651Z,21.40
2019-06-15T18:32:46.690Z,21.20
2019-06-15T18:35:16.971Z,21.00
2019-06-15T18:37:46.233Z,20.80
2019-06-15T18:40:17.238Z,21.00
2019-06-15T18:42:46.545Z,21.30
2019-06-15T18:45:17.116Z,21.30
2019-06-15T18:47:47.848Z,21.30
2019-06-15T18:50:30.628Z,20.60
2019-06-15T18:53:06.919Z,21.50
2019-06-15T18:55:44.180Z,21.50
2019-06-15T18:58:16.975Z,22.60
2019-06-15T19:00:46.799Z,21.60
2019-06-15T19:03:21.346Z,21.60
2019-06-15T19:05:51.940Z,21.70
2019-06-15T19:08:24.471Z,21.10
2019-06-15T19:10:52.773Z,21.00
2019-06-15T19:13:26.794Z,21.10
2019-06-15T19:15:57.391Z,21.20
2019-06-15T19:18:46.266Z,19.50
2019-06-15T19:21:17.651Z,20.70
2019-06-15T19:23:46.952Z,20.40
2019-06-15T19:26:16.456Z,20.20
2019-06-15T19:29:03.186Z,20.00
2019-06-15T19:31:39.018Z,20.00
2019-06-15T19:34:10.106Z,19.90
2019-06-15T19:36:47.084Z,19.90
2019-06-15T19:39:16.705Z,20.00
2019-06-15T19:41:48.809Z,20.00
2019-06-15T19:44:18.673Z,20.40
2019-06-15T19:49:36.285Z,19.90
2019-06-15T19:52:06.652Z,19.80
2019-06-15T19:54:42.408Z,19.70
2019-06-15T19:57:13.555Z,20.60
2019-06-15T19:59:43.415Z,19.60
2019-06-15T20:02:11.014Z,19.60
2019-06-15T20:04:38.702Z,19.60
2019-06-15T20:07:07.739Z,19.60
2019-06-15T20:09:37.140Z,21.10
2019-06-15T20:12:06.491Z,18.40
2019-06-15T20:14:36.727Z,19.90
2019-06-15T20:17:07.344Z,19.30
2019-06-15T20:19:37.553Z,19.10
2019-06-15T20:22:06.660Z,19.10
2019-06-15T20:24:36.495Z,18.90
2019-06-15T20:27:09.644Z,18.80
2019-06-15T20:29:36.100Z,20.00
2019-06-15T20:32:06.851Z,18.70
2019-06-15T20:34:37.094Z,18.70
2019-06-15T20:37:10.297Z,19.10
2019-06-15T20:39:38.598Z,18.20
2019-06-15T20:42:07.989Z,18.50
2019-06-15T20:44:37.560Z,18.50
2019-06-15T20:47:06.666Z,18.60
2019-06-15T20:49:36.996Z,18.60
2019-06-15T20:52:07.089Z,17.60
2019-06-15T20:54:34.693Z,18.60
2019-06-15T20:57:06.403Z,18.50
2019-06-15T20:59:36.907Z,18.40
2019-06-15T21:02:06.697Z,18.40
2019-06-15T21:04:40.751Z,18.40
2019-06-15T21:07:08.057Z,18.40
2019-06-15T21:09:40.143Z,18.30
2019-06-15T21:12:12.475Z,18.30
2019-06-15T21:15:00.312Z,18.30
2019-06-15T21:17:28.808Z,17.70
2019-06-15T21:19:58.647Z,18.60
2019-06-15T21:22:30.766Z,18.50
2019-06-15T21:24:58.292Z,18.50
2019-06-15T21:27:27.552Z,18.30
2019-06-15T21:29:55.247Z,19.90
2019-06-15T21:32:22.870Z,18.40
2019-06-15T21:34:50.092Z,18.50
2019-06-15T21:37:21.503Z,18.50
2019-06-15T21:39:49.464Z,18.50
2019-06-15T21:42:19.246Z,19.50
2019-06-15T21:44:47.002Z,18.50
2019-06-15T21:47:16.055Z,18.40
2019-06-15T21:49:43.549Z,18.40
2019-06-15T21:52:10.768Z,18.40
2019-06-15T21:54:37.813Z,18.30
2019-06-15T21:57:07.246Z,18.30
2019-06-15T21:59:37.077Z,18.30
2019-06-15T22:02:06.950Z,18.40
2019-06-15T22:04:36.721Z,18.10
2019-06-15T22:07:06.557Z,18.00
2019-06-15T22:09:36.367Z,17.90
2019-06-15T22:12:06.909Z,17.70
2019-06-15T22:14:34.675Z,17.50
2019-06-15T22:17:06.948Z,17.40
2019-06-15T22:19:37.803Z,17.20
2019-06-15T22:22:07.766Z,17.10
2019-06-15T22:24:46.869Z,16.70
2019-06-15T22:27:24.581Z,16.80
2019-06-15T22:29:56.571Z,16.50
2019-06-15T22:32:28.530Z,16.20
2019-06-15T22:34:56.315Z,16.10
2019-06-15T22:37:26.370Z,17.00
2019-06-15T22:40:10.817Z,15.80
2019-06-15T22:42:41.139Z,15.80
2019-06-15T22:45:10.941Z,15.60
2019-06-15T22:47:41.869Z,15.60
2019-06-15T22:50:16.102Z,15.60
2019-06-15T22:52:47.622Z,15.50
2019-06-15T22:55:16.594Z,15.40
2019-06-15T22:57:47.405Z,15.40
2019-06-15T23:00:18.764Z,15.40
2019-06-15T23:02:46.818Z,15.30
2019-06-15T23:05:16.936Z,15.30
2019-06-15T23:07:47.253Z,16.20
2019-06-15T23:10:23.349Z,15.30
2019-06-15T23:12:52.720Z,15.40
2019-06-15T23:15:21.953Z,14.60
2019-06-15T23:17:52.605Z,15.40
2019-06-15T23:20:21.722Z,15.30
2019-06-15T23:22:51.145Z,15.30
2019-06-15T23:25:19.695Z,15.30
2019-06-15T23:27:47.121Z,15.40
2019-06-15T23:30:16.401Z,15.40
2019-06-15T23:32:46.822Z,15.30
2019-06-15T23:35:13.833Z,16.40
2019-06-15T23:37:42.066Z,15.40
2019-06-15T23:40:20.522Z,15.30
2019-06-15T23:42:49.664Z,16.40
2019-06-15T23:45:18.071Z,15.40
2019-06-15T23:47:46.635Z,15.40
2019-06-15T23:50:16.930Z,15.40
2019-06-15T23:53:05.479Z,15.40
2019-06-15T23:55:36.644Z,15.30
2019-06-15T23:58:06.644Z,15.40
